sensor_id;sensor_type;location;lat;lon;timestamp;pressure;altitude;pressure_sealevel;temperature;humidity
9525;BME280;15940;48.734;9.112;2023-04-05T00:02:19;97045.16;;;1.26;63.69
9525;BME280;15940;48.734;9.112;2023-04-05T00:04:46;97048.63;;;1.23;62.25
9525;BME280;15940;48.734;9.112;2023-04-05T00:07:17;97051.16;;;1.30;63.63
9525;BME280;15940;48.734;9.112;2023-04-05T00:09:47;97049.66;;;1.29;63.12
9525;BME280;15940;48.734;9.112;2023-04-05T00:12:14;97042.69;;;1.35;63.19
9525;BME280;15940;48.734;9.112;2023-04-05T00:14:42;97043.72;;;1.22;63.10
9525;BME280;15940;48.734;9.112;2023-04-05T00:17:09;97054.47;;;1.18;62.72
9525;BME280;15940;48.734;9.112;2023-04-05T00:19:37;97038.44;;;1.18;62.79
9525;BME280;15940;48.734;9.112;2023-04-05T00:22:04;97034.69;;;1.16;63.52
9525;BME280;15940;48.734;9.112;2023-04-05T00:24:35;97032.56;;;1.07;62.68
9525;BME280;15940;48.734;9.112;2023-04-05T00:27:03;97026.63;;;1.19;63.62
9525;BME280;15940;48.734;9.112;2023-04-05T00:29:30;97028.81;;;1.24;64.05
9525;BME280;15940;48.734;9.112;2023-04-05T00:31:59;97017.09;;;1.18;63.56
9525;BME280;15940;48.734;9.112;2023-04-05T00:34:26;97024.81;;;1.12;63.62
9525;BME280;15940;48.734;9.112;2023-04-05T00:36:52;97019.44;;;1.16;63.56
9525;BME280;15940;48.734;9.112;2023-04-05T00:39:19;97020.59;;;1.15;62.65
9525;BME280;15940;48.734;9.112;2023-04-05T00:41:46;97016.56;;;1.27;64.04
9525;BME280;15940;48.734;9.112;2023-04-05T00:44:13;97015.81;;;1.06;63.61
9525;BME280;15940;48.734;9.112;2023-04-05T00:46:40;97011.28;;;1.03;64.35
9525;BME280;15940;48.734;9.112;2023-04-05T00:49:09;97010.88;;;1.25;63.88
9525;BME280;15940;48.734;9.112;2023-04-05T00:51:36;97010.28;;;1.17;63.85
9525;BME280;15940;48.734;9.112;2023-04-05T00:54:04;96998.91;;;1.13;64.56
9525;BME280;15940;48.734;9.112;2023-04-05T00:56:32;97009.94;;;1.15;64.24
9525;BME280;15940;48.734;9.112;2023-04-05T00:58:59;97002.41;;;1.10;64.32
9525;BME280;15940;48.734;9.112;2023-04-05T01:01:26;96996.22;;;1.13;64.63
9525;BME280;15940;48.734;9.112;2023-04-05T01:03:58;96992.03;;;1.32;64.01
9525;BME280;15940;48.734;9.112;2023-04-05T01:06:51;96988.84;;;1.21;63.62
9525;BME280;15940;48.734;9.112;2023-04-05T01:09:39;96989.53;;;1.25;64.88
9525;BME280;15940;48.734;9.112;2023-04-05T01:12:09;96988.38;;;1.26;64.30
9525;BME280;15940;48.734;9.112;2023-04-05T01:14:46;96985.38;;;1.24;64.83
9525;BME280;15940;48.734;9.112;2023-04-05T01:17:14;96981.91;;;1.23;64.27
9525;BME280;15940;48.734;9.112;2023-04-05T01:19:47;96971.84;;;1.14;64.39
9525;BME280;15940;48.734;9.112;2023-04-05T01:25:53;96970.88;;;0.85;65.15
9525;BME280;15940;48.734;9.112;2023-04-05T01:28:44;96976.38;;;0.98;66.48
9525;BME280;15940;48.734;9.112;2023-04-05T01:31:22;96972.72;;;1.08;65.28
9525;BME280;15940;48.734;9.112;2023-04-05T01:33:57;96965.69;;;0.98;65.18
9525;BME280;15940;48.734;9.112;2023-04-05T01:36:29;96964.81;;;1.04;65.15
9525;BME280;15940;48.734;9.112;2023-04-05T01:38:58;96963.00;;;1.18;64.74
9525;BME280;15940;48.734;9.112;2023-04-05T01:41:29;96953.22;;;1.11;63.48
9525;BME280;15940;48.734;9.112;2023-04-05T01:43:56;96963.22;;;1.07;65.62
9525;BME280;15940;48.734;9.112;2023-04-05T01:46:24;96960.38;;;0.98;64.78
9525;BME280;15940;48.734;9.112;2023-04-05T01:48:51;96962.84;;;0.89;64.74
9525;BME280;15940;48.734;9.112;2023-04-05T01:51:18;96963.59;;;0.89;65.85
9525;BME280;15940;48.734;9.112;2023-04-05T01:53:45;96963.31;;;1.20;64.93
9525;BME280;15940;48.734;9.112;2023-04-05T01:56:12;96958.19;;;1.29;63.82
9525;BME280;15940;48.734;9.112;2023-04-05T01:58:39;96956.50;;;1.19;64.18
9525;BME280;15940;48.734;9.112;2023-04-05T02:01:06;96959.72;;;1.10;64.35
9525;BME280;15940;48.734;9.112;2023-04-05T02:03:34;96960.97;;;1.05;64.33
9525;BME280;15940;48.734;9.112;2023-04-05T02:06:01;96950.88;;;0.97;64.69
9525;BME280;15940;48.734;9.112;2023-04-05T02:08:28;96951.28;;;0.95;65.01
9525;BME280;15940;48.734;9.112;2023-04-05T02:10:55;96943.09;;;1.02;64.46
9525;BME280;15940;48.734;9.112;2023-04-05T02:13:22;96939.38;;;0.80;63.42
9525;BME280;15940;48.734;9.112;2023-04-05T02:15:50;96936.34;;;0.98;65.00
9525;BME280;15940;48.734;9.112;2023-04-05T02:18:17;96944.31;;;0.81;64.17
9525;BME280;15940;48.734;9.112;2023-04-05T02:20:48;96934.28;;;0.69;66.13
9525;BME280;15940;48.734;9.112;2023-04-05T02:23:18;96938.22;;;0.81;66.32
9525;BME280;15940;48.734;9.112;2023-04-05T02:25:45;96937.75;;;0.86;66.14
9525;BME280;15940;48.734;9.112;2023-04-05T02:28:12;96935.41;;;0.88;66.17
9525;BME280;15940;48.734;9.112;2023-04-05T02:30:39;96930.09;;;0.88;65.94
9525;BME280;15940;48.734;9.112;2023-04-05T02:33:06;96926.53;;;0.75;65.01
9525;BME280;15940;48.734;9.112;2023-04-05T02:35:34;96930.69;;;0.96;65.57
9525;BME280;15940;48.734;9.112;2023-04-05T02:38:03;96925.09;;;0.90;65.77
9525;BME280;15940;48.734;9.112;2023-04-05T02:40:32;96935.19;;;0.99;66.17
9525;BME280;15940;48.734;9.112;2023-04-05T02:42:58;96934.66;;;0.88;66.20
9525;BME280;15940;48.734;9.112;2023-04-05T02:45:26;96932.72;;;1.08;65.15
9525;BME280;15940;48.734;9.112;2023-04-05T02:47:53;96929.84;;;0.99;66.23
9525;BME280;15940;48.734;9.112;2023-04-05T02:50:20;96933.91;;;0.87;65.71
9525;BME280;15940;48.734;9.112;2023-04-05T02:52:48;96934.91;;;0.93;65.83
9525;BME280;15940;48.734;9.112;2023-04-05T02:55:17;96923.13;;;1.10;65.77
9525;BME280;15940;48.734;9.112;2023-04-05T02:57:43;96925.25;;;1.35;64.59
9525;BME280;15940;48.734;9.112;2023-04-05T03:00:12;96928.41;;;0.94;64.12
9525;BME280;15940;48.734;9.112;2023-04-05T03:02:39;96928.06;;;0.76;64.33
9525;BME280;15940;48.734;9.112;2023-04-05T03:05:07;96920.81;;;0.76;66.59
9525;BME280;15940;48.734;9.112;2023-04-05T03:07:34;96924.63;;;0.75;65.85
9525;BME280;15940;48.734;9.112;2023-04-05T03:10:03;96922.53;;;0.67;66.16
9525;BME280;15940;48.734;9.112;2023-04-05T03:12:31;96925.56;;;0.65;67.02
9525;BME280;15940;48.734;9.112;2023-04-05T03:14:58;96922.38;;;0.74;65.71
9525;BME280;15940;48.734;9.112;2023-04-05T03:17:25;96921.41;;;0.44;65.08
9525;BME280;15940;48.734;9.112;2023-04-05T03:19:51;96922.59;;;0.43;68.23
9525;BME280;15940;48.734;9.112;2023-04-05T03:22:18;96916.63;;;0.36;67.20
9525;BME280;15940;48.734;9.112;2023-04-05T03:24:46;96917.75;;;0.58;67.97
9525;BME280;15940;48.734;9.112;2023-04-05T03:27:13;96911.63;;;0.38;67.23
9525;BME280;15940;48.734;9.112;2023-04-05T03:29:42;96919.44;;;0.28;66.92
9525;BME280;15940;48.734;9.112;2023-04-05T03:32:09;96920.06;;;-0.07;67.63
9525;BME280;15940;48.734;9.112;2023-04-05T03:34:37;96915.44;;;-0.26;69.03
9525;BME280;15940;48.734;9.112;2023-04-05T03:37:04;96917.59;;;-0.18;68.68
9525;BME280;15940;48.734;9.112;2023-04-05T03:39:31;96912.00;;;0.20;69.07
9525;BME280;15940;48.734;9.112;2023-04-05T03:41:57;96918.63;;;0.51;68.18
9525;BME280;15940;48.734;9.112;2023-04-05T03:44:26;96912.19;;;0.69;66.72
9525;BME280;15940;48.734;9.112;2023-04-05T03:46:54;96918.81;;;0.80;66.35
9525;BME280;15940;48.734;9.112;2023-04-05T03:49:21;96918.41;;;0.42;66.25
9525;BME280;15940;48.734;9.112;2023-04-05T03:51:48;96923.25;;;-0.16;67.03
9525;BME280;15940;48.734;9.112;2023-04-05T03:54:15;96929.50;;;-0.03;68.55
9525;BME280;15940;48.734;9.112;2023-04-05T03:56:42;96914.06;;;0.09;68.28
9525;BME280;15940;48.734;9.112;2023-04-05T03:59:09;96911.59;;;0.21;67.08
9525;BME280;15940;48.734;9.112;2023-04-05T04:01:36;96915.84;;;-0.05;65.90
9525;BME280;15940;48.734;9.112;2023-04-05T04:04:04;96918.97;;;-0.10;67.25
9525;BME280;15940;48.734;9.112;2023-04-05T04:06:31;96919.03;;;-0.13;69.23
9525;BME280;15940;48.734;9.112;2023-04-05T04:08:58;96909.16;;;0.07;68.12
9525;BME280;15940;48.734;9.112;2023-04-05T04:11:25;96908.16;;;0.01;67.32
9525;BME280;15940;48.734;9.112;2023-04-05T04:13:52;96909.13;;;0.11;68.26
9525;BME280;15940;48.734;9.112;2023-04-05T04:16:19;96909.69;;;-0.02;67.30
9525;BME280;15940;48.734;9.112;2023-04-05T04:18:46;96907.91;;;-0.32;67.41
9525;BME280;15940;48.734;9.112;2023-04-05T04:21:14;96911.00;;;-0.33;70.32
9525;BME280;15940;48.734;9.112;2023-04-05T04:23:43;96918.50;;;-0.05;69.09
9525;BME280;15940;48.734;9.112;2023-04-05T04:26:10;96919.59;;;-0.02;67.80
9525;BME280;15940;48.734;9.112;2023-04-05T04:28:38;96915.44;;;-0.03;67.53
9525;BME280;15940;48.734;9.112;2023-04-05T04:31:11;96910.44;;;-0.01;68.14
9525;BME280;15940;48.734;9.112;2023-04-05T04:33:38;96907.03;;;-0.02;68.25
9525;BME280;15940;48.734;9.112;2023-04-05T04:36:09;96910.06;;;0.20;67.47
9525;BME280;15940;48.734;9.112;2023-04-05T04:38:40;96913.91;;;0.19;67.19
9525;BME280;15940;48.734;9.112;2023-04-05T04:41:09;96904.41;;;0.38;67.37
9525;BME280;15940;48.734;9.112;2023-04-05T04:43:37;96906.34;;;0.57;65.94
9525;BME280;15940;48.734;9.112;2023-04-05T04:46:08;96906.16;;;0.65;65.66
9525;BME280;15940;48.734;9.112;2023-04-05T04:48:40;96908.44;;;0.46;65.50
9525;BME280;15940;48.734;9.112;2023-04-05T04:51:08;96911.59;;;0.61;66.23
9525;BME280;15940;48.734;9.112;2023-04-05T04:53:35;96909.94;;;0.47;65.41
9525;BME280;15940;48.734;9.112;2023-04-05T04:56:07;96916.72;;;0.52;65.42
9525;BME280;15940;48.734;9.112;2023-04-05T04:58:34;96916.28;;;0.14;65.75
9525;BME280;15940;48.734;9.112;2023-04-05T05:01:06;96913.00;;;-0.41;66.01
9525;BME280;15940;48.734;9.112;2023-04-05T05:03:34;96917.41;;;-0.54;69.07
9525;BME280;15940;48.734;9.112;2023-04-05T05:06:02;96917.53;;;-0.38;68.97
9525;BME280;15940;48.734;9.112;2023-04-05T05:08:29;96924.34;;;-0.13;69.61
9525;BME280;15940;48.734;9.112;2023-04-05T05:10:56;96920.00;;;-0.04;69.03
9525;BME280;15940;48.734;9.112;2023-04-05T05:13:24;96931.63;;;0.06;69.16
9525;BME280;15940;48.734;9.112;2023-04-05T05:15:51;96919.34;;;0.12;68.47
9525;BME280;15940;48.734;9.112;2023-04-05T05:18:19;96926.06;;;0.40;67.46
9525;BME280;15940;48.734;9.112;2023-04-05T05:20:49;96919.78;;;0.31;66.44
9525;BME280;15940;48.734;9.112;2023-04-05T05:23:17;96932.94;;;0.18;67.07
9525;BME280;15940;48.734;9.112;2023-04-05T05:25:45;96931.66;;;0.26;67.82
9525;BME280;15940;48.734;9.112;2023-04-05T05:28:12;96932.38;;;0.50;67.40
9525;BME280;15940;48.734;9.112;2023-04-05T05:30:41;96923.81;;;0.78;66.50
9525;BME280;15940;48.734;9.112;2023-04-05T05:33:07;96923.13;;;0.74;66.30
9525;BME280;15940;48.734;9.112;2023-04-05T05:35:35;96924.69;;;0.72;65.61
9525;BME280;15940;48.734;9.112;2023-04-05T05:38:02;96917.78;;;0.54;66.30
9525;BME280;15940;48.734;9.112;2023-04-05T05:40:29;96922.16;;;0.45;66.56
9525;BME280;15940;48.734;9.112;2023-04-05T05:42:56;96917.59;;;0.45;67.19
9525;BME280;15940;48.734;9.112;2023-04-05T05:45:23;96921.19;;;0.75;67.08
9525;BME280;15940;48.734;9.112;2023-04-05T05:47:51;96914.16;;;0.65;65.69
9525;BME280;15940;48.734;9.112;2023-04-05T05:50:18;96918.28;;;0.49;66.60
9525;BME280;15940;48.734;9.112;2023-04-05T05:52:46;96913.84;;;0.43;66.66
9525;BME280;15940;48.734;9.112;2023-04-05T05:55:13;96921.84;;;0.43;67.67
9525;BME280;15940;48.734;9.112;2023-04-05T05:57:40;96917.94;;;0.47;68.06
9525;BME280;15940;48.734;9.112;2023-04-05T06:00:08;96915.41;;;0.40;66.45
9525;BME280;15940;48.734;9.112;2023-04-05T06:02:35;96922.84;;;0.69;67.40
9525;BME280;15940;48.734;9.112;2023-04-05T06:05:04;96925.78;;;0.74;66.13
9525;BME280;15940;48.734;9.112;2023-04-05T06:07:35;96916.09;;;0.64;66.86
9525;BME280;15940;48.734;9.112;2023-04-05T06:10:03;96926.06;;;0.40;67.35
9525;BME280;15940;48.734;9.112;2023-04-05T06:12:30;96927.97;;;0.79;66.60
9525;BME280;15940;48.734;9.112;2023-04-05T06:14:57;96926.06;;;0.80;65.57
9525;BME280;15940;48.734;9.112;2023-04-05T06:17:24;96929.34;;;0.88;65.32
9525;BME280;15940;48.734;9.112;2023-04-05T06:19:51;96929.16;;;0.95;64.67
9525;BME280;15940;48.734;9.112;2023-04-05T06:22:19;96926.78;;;1.00;65.62
9525;BME280;15940;48.734;9.112;2023-04-05T06:24:47;96921.81;;;1.19;65.00
9525;BME280;15940;48.734;9.112;2023-04-05T06:27:14;96924.31;;;1.42;65.26
9525;BME280;15940;48.734;9.112;2023-04-05T06:29:41;96933.63;;;1.54;62.54
9525;BME280;15940;48.734;9.112;2023-04-05T06:32:08;96933.44;;;1.45;62.85
9525;BME280;15940;48.734;9.112;2023-04-05T06:34:35;96931.75;;;1.34;61.91
9525;BME280;15940;48.734;9.112;2023-04-05T06:37:02;96933.28;;;1.52;63.80
9525;BME280;15940;48.734;9.112;2023-04-05T06:39:30;96928.84;;;1.78;63.96
9525;BME280;15940;48.734;9.112;2023-04-05T06:41:57;96931.81;;;1.96;61.85
9525;BME280;15940;48.734;9.112;2023-04-05T06:44:24;96931.50;;;1.94;60.97
9525;BME280;15940;48.734;9.112;2023-04-05T06:46:51;96932.19;;;1.82;61.57
9525;BME280;15940;48.734;9.112;2023-04-05T06:49:18;96933.69;;;1.99;62.29
9525;BME280;15940;48.734;9.112;2023-04-05T06:51:45;96926.09;;;2.26;60.24
9525;BME280;15940;48.734;9.112;2023-04-05T06:54:12;96927.38;;;2.22;60.30
9525;BME280;15940;48.734;9.112;2023-04-05T06:56:40;96934.50;;;2.41;60.25
9525;BME280;15940;48.734;9.112;2023-04-05T06:59:07;96931.03;;;2.57;58.97
9525;BME280;15940;48.734;9.112;2023-04-05T07:01:34;96940.06;;;2.76;57.85
9525;BME280;15940;48.734;9.112;2023-04-05T07:04:01;96937.38;;;2.76;57.82
9525;BME280;15940;48.734;9.112;2023-04-05T07:06:28;96934.53;;;3.08;58.20
9525;BME280;15940;48.734;9.112;2023-04-05T07:08:56;96937.66;;;3.45;57.71
9525;BME280;15940;48.734;9.112;2023-04-05T07:11:23;96941.47;;;3.82;57.10
9525;BME280;15940;48.734;9.112;2023-04-05T07:13:51;96946.84;;;3.82;55.07
9525;BME280;15940;48.734;9.112;2023-04-05T07:16:18;96948.94;;;4.00;54.70
9525;BME280;15940;48.734;9.112;2023-04-05T07:18:47;96944.22;;;4.04;52.57
9525;BME280;15940;48.734;9.112;2023-04-05T07:21:15;96947.66;;;4.39;53.64
9525;BME280;15940;48.734;9.112;2023-04-05T07:23:41;96940.88;;;5.00;53.69
9525;BME280;15940;48.734;9.112;2023-04-05T07:26:08;96939.97;;;5.65;52.32
9525;BME280;15940;48.734;9.112;2023-04-05T07:28:37;96939.44;;;5.89;49.90
9525;BME280;15940;48.734;9.112;2023-04-05T07:31:06;96938.59;;;5.52;49.46
9525;BME280;15940;48.734;9.112;2023-04-05T07:33:33;96945.16;;;5.51;50.21
9525;BME280;15940;48.734;9.112;2023-04-05T07:36:00;96943.22;;;6.00;49.71
9525;BME280;15940;48.734;9.112;2023-04-05T07:38:28;96937.69;;;6.04;47.64
9525;BME280;15940;48.734;9.112;2023-04-05T07:40:55;96936.81;;;6.25;47.54
9525;BME280;15940;48.734;9.112;2023-04-05T07:43:23;96944.13;;;6.62;47.55
9525;BME280;15940;48.734;9.112;2023-04-05T07:45:50;96941.13;;;6.69;47.70
9525;BME280;15940;48.734;9.112;2023-04-05T07:48:19;96945.31;;;6.79;46.65
9525;BME280;15940;48.734;9.112;2023-04-05T07:50:47;96940.41;;;6.32;47.35
9525;BME280;15940;48.734;9.112;2023-04-05T07:53:17;96948.75;;;6.43;47.95
9525;BME280;15940;48.734;9.112;2023-04-05T07:55:44;96946.06;;;6.43;46.71
9525;BME280;15940;48.734;9.112;2023-04-05T07:58:11;96943.38;;;6.52;46.31
9525;BME280;15940;48.734;9.112;2023-04-05T08:00:38;96942.88;;;6.99;46.50
9525;BME280;15940;48.734;9.112;2023-04-05T08:03:05;96950.91;;;7.60;45.69
9525;BME280;15940;48.734;9.112;2023-04-05T08:05:33;96951.63;;;7.93;44.11
9525;BME280;15940;48.734;9.112;2023-04-05T08:08:00;96943.75;;;8.05;41.50
9525;BME280;15940;48.734;9.112;2023-04-05T08:10:27;96943.81;;;7.95;44.05
9525;BME280;15940;48.734;9.112;2023-04-05T08:12:54;96947.88;;;8.15;44.07
9525;BME280;15940;48.734;9.112;2023-04-05T08:15:21;96950.81;;;8.02;42.88
9525;BME280;15940;48.734;9.112;2023-04-05T08:17:48;96950.59;;;7.91;42.53
9525;BME280;15940;48.734;9.112;2023-04-05T08:20:15;96956.75;;;8.15;43.53
9525;BME280;15940;48.734;9.112;2023-04-05T08:22:43;96947.66;;;8.51;42.46
9525;BME280;15940;48.734;9.112;2023-04-05T08:25:10;96945.38;;;8.74;40.65
9525;BME280;15940;48.734;9.112;2023-04-05T08:27:37;96940.31;;;8.28;40.82
9525;BME280;15940;48.734;9.112;2023-04-05T08:30:06;96945.56;;;8.08;39.72
9525;BME280;15940;48.734;9.112;2023-04-05T08:32:33;96948.47;;;8.81;40.21
9525;BME280;15940;48.734;9.112;2023-04-05T08:35:00;96947.28;;;8.44;37.94
9525;BME280;15940;48.734;9.112;2023-04-05T08:37:27;96948.53;;;8.72;36.93
9525;BME280;15940;48.734;9.112;2023-04-05T08:39:55;96945.38;;;8.88;36.97
9525;BME280;15940;48.734;9.112;2023-04-05T08:42:31;96946.22;;;9.24;38.76
9525;BME280;15940;48.734;9.112;2023-04-05T08:45:03;96956.56;;;8.96;36.98
9525;BME280;15940;48.734;9.112;2023-04-05T08:47:30;96943.34;;;9.13;36.96
9525;BME280;15940;48.734;9.112;2023-04-05T08:50:02;96944.63;;;8.11;35.76
9525;BME280;15940;48.734;9.112;2023-04-05T08:52:30;96957.72;;;8.27;37.71
9525;BME280;15940;48.734;9.112;2023-04-05T08:54:58;96948.78;;;8.45;37.68
9525;BME280;15940;48.734;9.112;2023-04-05T08:57:28;96950.34;;;9.20;37.52
9525;BME280;15940;48.734;9.112;2023-04-05T08:59:56;96960.66;;;9.86;36.53
9525;BME280;15940;48.734;9.112;2023-04-05T09:02:25;96947.00;;;10.15;35.29
9525;BME280;15940;48.734;9.112;2023-04-05T09:04:52;96941.03;;;10.72;32.56
9525;BME280;15940;48.734;9.112;2023-04-05T09:07:20;96941.75;;;11.62;34.12
9525;BME280;15940;48.734;9.112;2023-04-05T09:09:52;96938.03;;;11.59;34.29
9525;BME280;15940;48.734;9.112;2023-04-05T09:12:23;96940.75;;;10.96;35.62
9525;BME280;15940;48.734;9.112;2023-04-05T09:14:51;96941.09;;;10.57;35.88
9525;BME280;15940;48.734;9.112;2023-04-05T09:17:18;96943.97;;;10.08;36.84
9525;BME280;15940;48.734;9.112;2023-04-05T09:19:46;96946.94;;;9.74;35.41
9525;BME280;15940;48.734;9.112;2023-04-05T09:22:14;96940.81;;;9.39;35.65
9525;BME280;15940;48.734;9.112;2023-04-05T09:24:44;96932.53;;;9.63;36.46
9525;BME280;15940;48.734;9.112;2023-04-05T09:27:12;96939.16;;;9.97;36.57
9525;BME280;15940;48.734;9.112;2023-04-05T09:29:42;96946.78;;;10.34;35.06
9525;BME280;15940;48.734;9.112;2023-04-05T09:32:11;96933.19;;;9.93;34.63
9525;BME280;15940;48.734;9.112;2023-04-05T09:34:40;96940.06;;;8.94;38.24
9525;BME280;15940;48.734;9.112;2023-04-05T09:37:14;96943.78;;;9.41;38.76
9525;BME280;15940;48.734;9.112;2023-04-05T09:39:42;96939.66;;;9.81;37.79
9525;BME280;15940;48.734;9.112;2023-04-05T09:42:10;96941.41;;;9.84;34.33
9525;BME280;15940;48.734;9.112;2023-04-05T09:44:51;96943.50;;;9.24;37.07
9525;BME280;15940;48.734;9.112;2023-04-05T09:47:21;96946.03;;;9.13;36.70
9525;BME280;15940;48.734;9.112;2023-04-05T09:49:49;96946.94;;;9.39;38.23
9525;BME280;15940;48.734;9.112;2023-04-05T09:52:21;96939.75;;;9.36;35.12
9525;BME280;15940;48.734;9.112;2023-04-05T09:54:52;96947.41;;;9.38;34.87
9525;BME280;15940;48.734;9.112;2023-04-05T09:57:21;96934.69;;;9.59;37.11
9525;BME280;15940;48.734;9.112;2023-04-05T09:59:52;96935.50;;;9.65;34.71
9525;BME280;15940;48.734;9.112;2023-04-05T10:02:21;96929.34;;;9.29;35.72
9525;BME280;15940;48.734;9.112;2023-04-05T10:04:48;96929.69;;;10.07;36.88
9525;BME280;15940;48.734;9.112;2023-04-05T10:07:17;96930.06;;;10.61;35.65
9525;BME280;15940;48.734;9.112;2023-04-05T10:09:46;96923.38;;;10.56;33.54
9525;BME280;15940;48.734;9.112;2023-04-05T10:12:23;96921.16;;;10.14;35.62
9525;BME280;15940;48.734;9.112;2023-04-05T10:14:53;96920.47;;;10.40;35.33
9525;BME280;15940;48.734;9.112;2023-04-05T10:17:25;96917.81;;;10.92;34.96
9525;BME280;15940;48.734;9.112;2023-04-05T10:20:06;96917.72;;;11.12;34.60
9525;BME280;15940;48.734;9.112;2023-04-05T10:22:42;96916.69;;;10.52;34.51
9525;BME280;15940;48.734;9.112;2023-04-05T10:25:20;96909.91;;;10.42;35.10
9525;BME280;15940;48.734;9.112;2023-04-05T10:27:54;96908.78;;;10.28;35.01
9525;BME280;15940;48.734;9.112;2023-04-05T10:30:25;96904.78;;;10.03;36.90
9525;BME280;15940;48.734;9.112;2023-04-05T10:33:11;96911.81;;;9.95;35.43
9525;BME280;15940;48.734;9.112;2023-04-05T10:35:59;96904.63;;;10.12;36.78
9525;BME280;15940;48.734;9.112;2023-04-05T10:38:41;96911.00;;;10.50;38.58
9525;BME280;15940;48.734;9.112;2023-04-05T10:41:15;96901.06;;;10.67;34.78
9525;BME280;15940;48.734;9.112;2023-04-05T10:43:43;96912.09;;;10.38;36.97
9525;BME280;15940;48.734;9.112;2023-04-05T10:46:19;96909.31;;;10.52;36.74
9525;BME280;15940;48.734;9.112;2023-04-05T10:48:53;96908.50;;;10.46;37.48
9525;BME280;15940;48.734;9.112;2023-04-05T10:51:23;96899.25;;;10.84;37.31
9525;BME280;15940;48.734;9.112;2023-04-05T10:53:51;96914.63;;;11.25;37.58
9525;BME280;15940;48.734;9.112;2023-04-05T10:56:19;96906.28;;;11.28;34.22
9525;BME280;15940;48.734;9.112;2023-04-05T10:58:47;96909.13;;;11.13;37.05
9525;BME280;15940;48.734;9.112;2023-04-05T11:01:18;96911.25;;;11.04;36.50
9525;BME280;15940;48.734;9.112;2023-04-05T11:03:47;96903.59;;;10.50;36.09
9525;BME280;15940;48.734;9.112;2023-04-05T11:06:23;96896.16;;;10.97;36.20
9525;BME280;15940;48.734;9.112;2023-04-05T11:08:56;96894.25;;;10.77;33.46
9525;BME280;15940;48.734;9.112;2023-04-05T11:16:14;96899.59;;;10.98;34.92
9525;BME280;15940;48.734;9.112;2023-04-05T11:18:44;96894.25;;;10.77;36.12
9525;BME280;15940;48.734;9.112;2023-04-05T11:21:20;96892.09;;;10.55;38.31
9525;BME280;15940;48.734;9.112;2023-04-05T11:24:03;96886.91;;;10.32;35.67
9525;BME280;15940;48.734;9.112;2023-04-05T11:26:33;96865.53;;;10.13;35.13
9525;BME280;15940;48.734;9.112;2023-04-05T11:29:17;96876.78;;;10.26;38.28
9525;BME280;15940;48.734;9.112;2023-04-05T11:31:58;96867.81;;;10.41;36.01
9525;BME280;15940;48.734;9.112;2023-04-05T11:34:26;96870.88;;;10.28;34.63
9525;BME280;15940;48.734;9.112;2023-04-05T11:39:25;96866.44;;;10.51;36.86
9525;BME280;15940;48.734;9.112;2023-04-05T11:41:55;96856.47;;;10.37;37.98
9525;BME280;15940;48.734;9.112;2023-04-05T11:44:23;96859.25;;;10.01;36.54
9525;BME280;15940;48.734;9.112;2023-04-05T11:46:51;96863.84;;;10.16;36.58
9525;BME280;15940;48.734;9.112;2023-04-05T11:49:21;96859.38;;;10.59;38.69
9525;BME280;15940;48.734;9.112;2023-04-05T11:51:50;96862.06;;;10.85;35.73
9525;BME280;15940;48.734;9.112;2023-04-05T11:54:33;96861.50;;;11.07;37.32
9525;BME280;15940;48.734;9.112;2023-04-05T11:57:00;96853.22;;;11.22;36.88
9525;BME280;15940;48.734;9.112;2023-04-05T12:02:03;96858.28;;;11.08;38.26
9525;BME280;15940;48.734;9.112;2023-04-05T12:04:32;96855.31;;;11.38;36.04
9525;BME280;15940;48.734;9.112;2023-04-05T12:07:14;96852.75;;;11.71;33.98
9525;BME280;15940;48.734;9.112;2023-04-05T12:10:07;96851.44;;;11.13;33.64
9525;BME280;15940;48.734;9.112;2023-04-05T12:12:38;96847.25;;;11.12;33.51
9525;BME280;15940;48.734;9.112;2023-04-05T12:15:07;96836.03;;;10.93;34.53
9525;BME280;15940;48.734;9.112;2023-04-05T12:17:41;96832.78;;;10.89;34.22
9525;BME280;15940;48.734;9.112;2023-04-05T12:20:10;96838.81;;;10.73;36.99
9525;BME280;15940;48.734;9.112;2023-04-05T12:22:41;96839.50;;;10.68;35.39
9525;BME280;15940;48.734;9.112;2023-04-05T12:25:09;96828.28;;;10.80;33.84
9525;BME280;15940;48.734;9.112;2023-04-05T12:27:37;96833.06;;;10.91;35.04
9525;BME280;15940;48.734;9.112;2023-04-05T12:30:14;96830.00;;;11.15;36.71
9525;BME280;15940;48.734;9.112;2023-04-05T12:32:44;96822.56;;;10.73;33.66
9525;BME280;15940;48.734;9.112;2023-04-05T12:35:14;96832.19;;;10.79;38.40
9525;BME280;15940;48.734;9.112;2023-04-05T12:37:41;96825.56;;;11.12;33.70
9525;BME280;15940;48.734;9.112;2023-04-05T12:40:09;96827.28;;;11.09;34.09
9525;BME280;15940;48.734;9.112;2023-04-05T12:42:38;96824.13;;;11.22;35.87
9525;BME280;15940;48.734;9.112;2023-04-05T12:47:50;96812.50;;;11.64;32.59
9525;BME280;15940;48.734;9.112;2023-04-05T12:50:19;96811.56;;;11.19;33.61
9525;BME280;15940;48.734;9.112;2023-04-05T12:52:53;96811.25;;;10.80;31.99
9525;BME280;15940;48.734;9.112;2023-04-05T12:55:21;96812.16;;;10.66;36.91
9525;BME280;15940;48.734;9.112;2023-04-05T12:57:55;96797.53;;;10.83;34.57
9525;BME280;15940;48.734;9.112;2023-04-05T13:00:25;96797.53;;;10.89;35.26
9525;BME280;15940;48.734;9.112;2023-04-05T13:02:56;96798.50;;;10.80;34.88
9525;BME280;15940;48.734;9.112;2023-04-05T13:05:24;96793.63;;;10.90;35.83
9525;BME280;15940;48.734;9.112;2023-04-05T13:07:52;96798.81;;;11.31;35.18
9525;BME280;15940;48.734;9.112;2023-04-05T13:10:19;96797.06;;;11.28;32.86
9525;BME280;15940;48.734;9.112;2023-04-05T13:12:47;96789.25;;;11.41;33.54
9525;BME280;15940;48.734;9.112;2023-04-05T13:15:15;96793.19;;;11.45;33.68
9525;BME280;15940;48.734;9.112;2023-04-05T13:17:43;96794.50;;;11.61;34.49
9525;BME280;15940;48.734;9.112;2023-04-05T13:20:16;96784.31;;;11.39;33.00
9525;BME280;15940;48.734;9.112;2023-04-05T13:22:43;96786.41;;;11.19;32.45
9525;BME280;15940;48.734;9.112;2023-04-05T13:25:10;96782.25;;;11.23;32.52
9525;BME280;15940;48.734;9.112;2023-04-05T13:27:37;96779.25;;;10.78;33.03
9525;BME280;15940;48.734;9.112;2023-04-05T13:30:06;96777.72;;;10.72;33.90
9525;BME280;15940;48.734;9.112;2023-04-05T13:32:33;96782.31;;;10.60;32.93
9525;BME280;15940;48.734;9.112;2023-04-05T13:35:00;96772.13;;;10.81;33.33
9525;BME280;15940;48.734;9.112;2023-04-05T13:37:28;96770.56;;;11.06;35.33
9525;BME280;15940;48.734;9.112;2023-04-05T13:39:55;96765.06;;;11.37;35.89
9525;BME280;15940;48.734;9.112;2023-04-05T13:42:22;96769.00;;;11.36;35.05
9525;BME280;15940;48.734;9.112;2023-04-05T13:44:50;96772.03;;;11.55;35.46